Time;durP1;ratioP1;P1;durP2;ratioP2;P2;SDS_P1;SDS_P2;PMS_P1;PMS_P2;Temp;Humidity;BMP_temperature;BMP_pressure;BME280_temperature;BME280_humidity;BME280_pressure;Samples;Min_cycle;Max_cycle;Signal;HPM_P1;HPM_P2
2022/10/24 00:00:30;;;;;;;8.63;3.22;;;15.30;99.90;;;;;;5079724;28;21339;-66
2022/10/24 00:02:56;;;;;;;9.10;3.42;;;15.30;99.90;;;;;;5080833;28;20040;-66
2022/10/24 00:05:22;;;;;;;10.35;3.47;;;15.30;99.90;;;;;;5080199;28;20119;-66
2022/10/24 00:07:49;;;;;;;10.82;3.67;;;15.30;99.90;;;;;;5063918;28;20652;-66
2022/10/24 00:10:15;;;;;;;16.38;3.47;;;15.30;99.90;;;;;;5080404;28;20487;-66
2022/10/24 00:12:41;;;;;;;12.98;3.38;;;15.30;99.90;;;;;;5084197;28;20024;-66
2022/10/24 00:15:07;;;;;;;9.65;3.63;;;15.30;99.90;;;;;;5081543;28;20047;-66
2022/10/24 00:17:33;;;;;;;12.82;3.20;;;15.30;99.90;;;;;;5083334;28;20036;-66
2022/10/24 00:19:59;;;;;;;10.07;3.53;;;15.30;99.90;;;;;;5081412;28;20048;-66
2022/10/24 00:22:25;;;;;;;13.18;3.63;;;15.30;99.90;;;;;;5077421;28;20033;-66
2022/10/24 00:24:51;;;;;;;9.25;3.40;;;15.30;99.90;;;;;;5079132;28;20047;-66
2022/10/24 00:27:17;;;;;;;11.23;3.65;;;15.30;99.90;;;;;;5082629;28;20029;-66
2022/10/24 00:29:42;;;;;;;14.52;3.63;;;15.30;99.90;;;;;;5064220;28;20028;-66
2022/10/24 00:32:08;;;;;;;13.80;3.30;;;15.30;99.90;;;;;;5079456;28;20039;-66
2022/10/24 00:34:33;;;;;;;10.48;3.75;;;15.30;99.90;;;;;;5084015;28;20028;-66
2022/10/24 00:36:59;;;;;;;11.63;3.40;;;15.30;99.90;;;;;;5075991;28;20031;-65
2022/10/24 00:39:24;;;;;;;11.05;3.78;;;15.20;99.90;;;;;;5063736;28;20103;-65
2022/10/24 00:41:53;;;;;;;12.93;3.88;;;15.20;99.90;;;;;;5080476;28;20032;-66
2022/10/24 00:44:23;;;;;;;11.00;4.22;;;15.20;99.90;;;;;;5081740;28;20036;-65
2022/10/24 00:47:11;;;;;;;8.35;3.70;;;15.20;99.90;;;;;;5080522;28;20028;-65
2022/10/24 00:49:51;;;;;;;13.07;4.38;;;15.40;99.90;;;;;;5077936;28;20036;-66
2022/10/24 00:52:39;;;;;;;13.35;3.60;;;15.20;99.90;;;;;;5077638;28;20059;-66
2022/10/24 00:55:06;;;;;;;15.20;4.38;;;15.10;99.90;;;;;;5063962;28;20024;-65
2022/10/24 00:57:41;;;;;;;13.52;4.03;;;15.20;99.90;;;;;;5082652;28;20044;-65
2022/10/24 01:00:10;;;;;;;13.07;4.00;;;15.20;99.90;;;;;;5081346;28;20491;-65
2022/10/24 01:02:36;;;;;;;13.00;3.67;;;15.20;99.90;;;;;;5081278;28;20035;-65
2022/10/24 01:05:03;;;;;;;11.95;4.03;;;15.20;99.90;;;;;;5081886;28;20051;-65
2022/10/24 01:07:50;;;;;;;10.15;3.85;;;15.20;99.90;;;;;;5081872;28;20036;-65
2022/10/24 01:10:30;;;;;;;13.27;3.65;;;15.30;99.90;;;;;;5081608;28;20123;-65
2022/10/24 01:13:20;;;;;;;13.80;3.50;;;15.30;99.90;;;;;;5082692;28;20498;-65
2022/10/24 01:15:51;;;;;;;8.52;3.40;;;15.30;99.90;;;;;;5060631;28;20037;-65
2022/10/24 01:18:26;;;;;;;10.00;3.30;;;15.30;99.90;;;;;;5062170;28;20035;-65
2022/10/24 01:21:08;;;;;;;9.60;3.42;;;15.30;99.90;;;;;;5064568;28;20090;-65
2022/10/24 01:24:03;;;;;;;10.10;3.47;;;15.30;99.90;;;;;;5064615;28;20028;-66
2022/10/24 01:26:50;;;;;;;12.82;3.38;;;15.30;99.90;;;;;;5077379;28;20036;-66
2022/10/24 01:29:22;;;;;;;12.30;3.50;;;15.30;99.90;;;;;;5061247;28;20395;-65
2022/10/24 01:32:01;;;;;;;8.70;3.25;;;15.30;99.90;;;;;;5063172;28;20033;-65
2022/10/24 01:34:37;;;;;;;9.82;3.20;;;15.30;99.90;;;;;;5060314;28;20047;-66
2022/10/24 01:37:08;;;;;;;8.70;2.90;;;15.30;99.90;;;;;;5054857;28;20368;-66
2022/10/24 01:39:42;;;;;;;11.32;3.67;;;15.30;99.90;;;;;;5063931;28;20442;-66
2022/10/24 01:42:12;;;;;;;10.25;3.28;;;15.20;99.90;;;;;;5062620;28;20040;-66
2022/10/24 01:44:41;;;;;;;11.13;3.35;;;15.20;99.90;;;;;;5064170;28;20028;-65
2022/10/24 01:47:13;;;;;;;10.75;3.28;;;15.20;99.90;;;;;;5064042;28;20033;-66
2022/10/24 01:49:42;;;;;;;13.68;3.28;;;15.20;99.90;;;;;;5065466;28;20465;-66
2022/10/24 01:52:12;;;;;;;10.05;3.03;;;15.20;99.90;;;;;;5064274;28;20408;-66
2022/10/24 01:54:41;;;;;;;8.43;3.70;;;15.20;99.90;;;;;;5061217;28;20025;-66
2022/10/24 01:57:06;;;;;;;15.85;3.63;;;15.20;99.90;;;;;;5063536;28;20029;-66
2022/10/24 01:59:32;;;;;;;18.75;3.72;;;15.20;99.90;;;;;;5063785;28;20032;-66
2022/10/24 02:02:12;;;;;;;8.60;3.78;;;15.10;99.90;;;;;;5064310;28;20375;-65
2022/10/24 02:04:43;;;;;;;13.98;3.45;;;15.10;99.90;;;;;;5065244;28;20033;-66
2022/10/24 02:07:12;;;;;;;8.93;3.13;;;15.10;99.90;;;;;;5063418;28;20579;-65
2022/10/24 02:09:40;;;;;;;9.27;3.22;;;15.10;99.90;;;;;;5058464;28;20036;-65
2022/10/24 02:12:11;;;;;;;9.25;3.20;;;15.10;99.90;;;;;;5063789;28;20601;-66
2022/10/24 02:14:42;;;;;;;14.13;3.90;;;15.10;99.90;;;;;;5062092;28;20065;-65
2022/10/24 02:17:07;;;;;;;13.27;3.40;;;15.10;99.90;;;;;;5061135;28;21026;-65
2022/10/24 02:19:35;;;;;;;11.27;3.40;;;15.00;99.90;;;;;;5054687;28;20024;-66
2022/10/24 02:22:18;;;;;;;8.60;2.92;;;15.00;99.90;;;;;;5064814;28;20025;-65
2022/10/24 02:24:54;;;;;;;10.68;3.60;;;15.10;99.90;;;;;;5064220;28;20131;-65
2022/10/24 02:27:48;;;;;;;11.93;3.70;;;15.00;99.90;;;;;;5061776;28;20081;-65
2022/10/24 02:30:20;;;;;;;11.18;3.00;;;15.00;99.90;;;;;;5067908;28;20388;-66
2022/10/24 02:32:50;;;;;;;12.73;3.45;;;15.00;99.90;;;;;;5063551;28;20372;-65
2022/10/24 02:35:18;;;;;;;10.70;3.40;;;14.90;99.90;;;;;;5062672;28;20116;-65
2022/10/24 02:37:49;;;;;;;12.88;3.35;;;15.00;99.90;;;;;;5058775;28;20037;-65
2022/10/24 02:40:17;;;;;;;7.40;3.20;;;15.00;99.90;;;;;;5061224;28;20413;-66
2022/10/24 02:42:45;;;;;;;8.57;3.30;;;14.90;99.90;;;;;;5060547;28;20094;-66
2022/10/24 02:45:13;;;;;;;13.02;3.38;;;14.90;99.90;;;;;;5063269;28;20516;-65
2022/10/24 02:47:41;;;;;;;8.80;2.90;;;14.90;99.90;;;;;;5062213;28;20422;-65
2022/10/24 02:50:08;;;;;;;11.25;3.47;;;15.00;99.90;;;;;;5060616;28;20078;-65
2022/10/24 02:52:35;;;;;;;11.85;3.03;;;15.00;99.90;;;;;;5062610;28;20064;-65
2022/10/24 02:55:00;;;;;;;8.63;2.85;;;15.00;99.90;;;;;;5063922;28;20037;-65
2022/10/24 02:57:26;;;;;;;7.93;2.85;;;14.90;99.90;;;;;;5064990;28;20032;-65
2022/10/24 02:59:52;;;;;;;10.02;2.90;;;14.90;99.90;;;;;;5079111;28;20060;-66
2022/10/24 03:02:18;;;;;;;10.45;3.08;;;14.90;99.90;;;;;;5083794;28;20147;-65
2022/10/24 03:04:44;;;;;;;10.57;2.72;;;15.00;99.90;;;;;;5065999;28;20031;-65
2022/10/24 03:07:10;;;;;;;11.40;2.80;;;14.90;99.90;;;;;;5083334;28;20399;-66
2022/10/24 03:09:35;;;;;;;6.90;3.10;;;14.90;99.90;;;;;;5081396;28;20063;-65
2022/10/24 03:12:01;;;;;;;10.65;2.85;;;14.80;99.90;;;;;;5083843;28;20097;-65
2022/10/24 03:14:27;;;;;;;7.13;2.50;;;14.80;99.90;;;;;;5083210;28;20028;-65
2022/10/24 03:16:53;;;;;;;7.90;3.10;;;14.80;99.90;;;;;;5083543;28;20028;-66
2022/10/24 03:19:18;;;;;;;7.35;2.75;;;14.80;99.90;;;;;;5082138;28;20055;-65
2022/10/24 03:21:44;;;;;;;6.55;2.55;;;14.80;99.90;;;;;;5082681;28;20356;-65
2022/10/24 03:24:10;;;;;;;13.05;2.90;;;14.90;99.90;;;;;;5081682;28;20036;-66
2022/10/24 03:26:35;;;;;;;12.05;2.97;;;14.80;99.90;;;;;;5064780;28;20039;-66
2022/10/24 03:29:01;;;;;;;12.50;2.97;;;14.80;99.90;;;;;;5081352;28;20052;-66
2022/10/24 03:31:27;;;;;;;8.93;2.75;;;14.80;99.90;;;;;;5061772;28;20043;-65
2022/10/24 03:33:52;;;;;;;9.52;2.88;;;14.80;99.90;;;;;;5083153;28;20391;-66
2022/10/24 03:36:18;;;;;;;9.77;3.00;;;14.70;99.90;;;;;;5077666;28;20040;-66
2022/10/24 03:38:44;;;;;;;8.23;2.70;;;14.80;99.90;;;;;;5065159;28;20052;-66
2022/10/24 03:41:09;;;;;;;10.45;3.03;;;14.70;99.90;;;;;;5082254;28;20407;-65
2022/10/24 03:43:35;;;;;;;11.52;3.03;;;14.70;99.90;;;;;;5080730;28;20074;-66
2022/10/24 03:46:00;;;;;;;10.75;3.05;;;14.60;99.90;;;;;;5081637;28;20047;-66
2022/10/24 03:48:26;;;;;;;5.07;2.63;;;14.60;99.90;;;;;;5065015;28;20074;-66
2022/10/24 03:50:52;;;;;;;14.43;2.95;;;14.70;99.90;;;;;;5082851;28;20085;-65
2022/10/24 03:53:18;;;;;;;12.32;3.20;;;14.70;99.90;;;;;;5081170;28;20517;-66
2022/10/24 03:55:43;;;;;;;7.10;2.50;;;14.60;99.90;;;;;;5081706;28;20674;-65
2022/10/24 03:58:09;;;;;;;8.45;3.17;;;14.60;99.90;;;;;;5064354;28;20411;-66
2022/10/24 04:00:39;;;;;;;8.40;2.90;;;14.50;99.90;;;;;;5080855;28;20028;-65
2022/10/24 04:03:05;;;;;;;9.23;3.00;;;14.60;99.90;;;;;;5065672;28;20032;-65
2022/10/24 04:05:31;;;;;;;11.18;2.78;;;14.50;99.90;;;;;;5082579;28;20028;-66
2022/10/24 04:07:56;;;;;;;9.70;3.00;;;14.50;99.90;;;;;;5082236;28;20043;-65
2022/10/24 04:10:22;;;;;;;8.48;2.60;;;14.50;99.90;;;;;;5082151;28;20036;-66
2022/10/24 04:12:47;;;;;;;14.07;2.90;;;14.50;99.90;;;;;;5082681;28;20509;-66
2022/10/24 04:15:13;;;;;;;9.70;2.67;;;14.50;99.90;;;;;;5080143;28;20040;-66
2022/10/24 04:17:39;;;;;;;10.93;2.90;;;14.50;99.90;;;;;;5080284;28;20119;-65
2022/10/24 04:20:05;;;;;;;7.68;2.60;;;14.50;99.90;;;;;;5080764;28;20690;-65
2022/10/24 04:22:31;;;;;;;10.20;2.40;;;14.60;99.90;;;;;;5078190;28;20115;-65
2022/10/24 04:24:56;;;;;;;9.18;2.30;;;14.60;99.90;;;;;;5082708;28;20527;-65
2022/10/24 04:27:22;;;;;;;5.60;1.98;;;14.50;99.90;;;;;;5061985;28;20043;-66
2022/10/24 04:29:47;;;;;;;8.55;2.78;;;14.60;99.90;;;;;;5080539;28;20040;-66
2022/10/24 04:32:13;;;;;;;11.40;2.28;;;14.60;99.90;;;;;;5082169;28;20143;-66
2022/10/24 04:34:38;;;;;;;7.85;2.20;;;14.60;99.90;;;;;;5083954;28;20035;-66
2022/10/24 04:37:04;;;;;;;7.93;2.67;;;14.50;99.90;;;;;;5075489;28;20123;-66
2022/10/24 04:39:30;;;;;;;8.00;2.63;;;14.50;99.90;;;;;;5081301;28;20052;-65
2022/10/24 04:41:55;;;;;;;9.15;2.53;;;14.50;99.90;;;;;;5079731;28;20527;-66
2022/10/24 04:44:21;;;;;;;11.18;2.22;;;14.50;99.90;;;;;;5082289;28;20032;-66
2022/10/24 04:46:46;;;;;;;7.70;2.22;;;14.40;99.90;;;;;;5081140;28;20594;-66
2022/10/24 04:49:12;;;;;;;7.10;1.73;;;14.60;99.90;;;;;;5084041;28;20028;-66
2022/10/24 04:51:37;;;;;;;11.30;2.53;;;14.60;99.90;;;;;;5086761;28;20104;-66
2022/10/24 04:54:04;;;;;;;7.88;2.10;;;14.50;99.90;;;;;;5067173;28;20044;-66
2022/10/24 04:56:30;;;;;;;8.05;2.25;;;14.50;99.90;;;;;;5067361;28;20107;-66
2022/10/24 04:58:56;;;;;;;10.30;2.78;;;14.50;99.90;;;;;;5084979;28;20151;-65
2022/10/24 05:01:21;;;;;;;11.55;2.63;;;14.60;99.90;;;;;;5085029;28;20127;-65
2022/10/24 05:03:47;;;;;;;13.38;2.40;;;14.60;99.90;;;;;;5083548;28;20051;-66
2022/10/24 05:06:13;;;;;;;10.32;2.58;;;14.70;99.90;;;;;;5084812;28;20032;-65
2022/10/24 05:08:38;;;;;;;6.53;2.20;;;14.60;99.90;;;;;;5086549;28;20455;-66
2022/10/24 05:11:04;;;;;;;4.78;2.28;;;14.60;99.90;;;;;;5079539;28;20049;-65
2022/10/24 05:13:29;;;;;;;9.05;2.55;;;14.50;99.90;;;;;;5085648;28;20055;-65
2022/10/24 05:15:55;;;;;;;10.57;2.28;;;14.50;99.90;;;;;;5085181;28;20036;-66
2022/10/24 05:18:21;;;;;;;9.43;2.13;;;14.60;99.90;;;;;;5084134;28;20036;-65
2022/10/24 05:20:46;;;;;;;8.73;2.40;;;14.50;99.90;;;;;;5085464;28;20048;-66
2022/10/24 05:23:12;;;;;;;7.30;1.70;;;14.50;99.90;;;;;;5061278;28;20032;-65
2022/10/24 05:25:38;;;;;;;9.73;2.38;;;14.50;99.90;;;;;;5086130;28;20097;-65
2022/10/24 05:28:03;;;;;;;6.85;2.67;;;14.50;99.90;;;;;;5081064;28;20135;-66
2022/10/24 05:30:29;;;;;;;4.72;1.90;;;14.50;99.90;;;;;;5084989;28;20078;-65
2022/10/24 05:32:55;;;;;;;8.63;2.30;;;14.50;99.90;;;;;;5053509;28;20063;-65
2022/10/24 05:35:20;;;;;;;8.15;2.33;;;14.50;99.90;;;;;;5084709;28;20032;-65
2022/10/24 05:37:46;;;;;;;6.30;2.13;;;14.50;99.90;;;;;;5057654;28;20043;-65
2022/10/24 05:40:12;;;;;;;7.57;2.50;;;14.50;99.90;;;;;;5084496;28;20077;-65
2022/10/24 05:42:38;;;;;;;7.85;1.80;;;14.40;99.90;;;;;;5082668;28;20024;-65
2022/10/24 05:45:06;;;;;;;7.50;2.00;;;14.50;99.90;;;;;;5083312;28;20036;-65
2022/10/24 05:47:32;;;;;;;10.10;2.17;;;14.40;99.90;;;;;;5061563;28;20495;-65
2022/10/24 05:49:57;;;;;;;6.20;1.80;;;14.50;99.90;;;;;;5085223;28;20089;-65
2022/10/24 05:52:23;;;;;;;8.70;1.90;;;14.50;99.90;;;;;;5081532;28;20044;-65
2022/10/24 05:54:49;;;;;;;5.70;1.80;;;14.50;99.90;;;;;;5062756;28;20051;-66
2022/10/24 05:57:14;;;;;;;11.38;2.33;;;14.50;99.90;;;;;;5077576;28;20529;-65
2022/10/24 05:59:40;;;;;;;7.32;1.80;;;14.50;99.90;;;;;;5062779;28;20024;-65
2022/10/24 06:02:06;;;;;;;7.57;1.83;;;14.40;99.90;;;;;;5081671;28;20048;-66
2022/10/24 06:04:31;;;;;;;7.05;2.33;;;14.50;99.90;;;;;;5086128;28;20032;-64
2022/10/24 06:06:57;;;;;;;5.93;1.92;;;14.50;99.90;;;;;;5073638;28;20055;-64
2022/10/24 06:09:23;;;;;;;11.70;2.00;;;14.70;99.90;;;;;;5082404;28;20158;-64
2022/10/24 06:11:48;;;;;;;5.97;1.80;;;14.80;99.90;;;;;;5083173;28;20410;-64
2022/10/24 06:14:15;;;;;;;9.15;1.50;;;14.70;99.90;;;;;;5082627;28;20697;-64
2022/10/24 06:16:41;;;;;;;5.28;1.70;;;14.70;99.90;;;;;;5082897;28;20105;-64
2022/10/24 06:19:07;;;;;;;4.00;1.88;;;14.60;99.90;;;;;;5082376;28;20029;-64
2022/10/24 06:21:32;;;;;;;5.72;1.77;;;14.60;99.90;;;;;;5082516;28;20042;-64
2022/10/24 06:23:58;;;;;;;11.63;1.77;;;14.60;99.90;;;;;;5082798;28;20499;-61
2022/10/24 06:26:24;;;;;;;6.25;1.75;;;14.80;99.90;;;;;;5077740;28;20039;-62
2022/10/24 06:28:50;;;;;;;6.85;1.73;;;14.70;99.90;;;;;;5082916;28;20123;-61
2022/10/24 06:31:17;;;;;;;5.65;1.88;;;14.60;99.90;;;;;;5079609;28;20044;-61
2022/10/24 06:33:42;;;;;;;6.28;1.52;;;14.60;99.90;;;;;;5083937;28;20355;-61
2022/10/24 06:36:09;;;;;;;10.77;1.88;;;14.70;99.90;;;;;;5074435;28;20028;-61
2022/10/24 06:38:36;;;;;;;8.68;1.63;;;14.70;99.90;;;;;;5079091;28;20643;-62
2022/10/24 06:41:10;;;;;;;7.80;1.45;;;14.70;99.90;;;;;;5078724;28;20748;-61
2022/10/24 06:43:36;;;;;;;6.97;1.65;;;14.70;99.90;;;;;;5078390;28;20112;-61
2022/10/24 06:46:07;;;;;;;5.95;1.60;;;14.70;99.90;;;;;;5080416;28;20838;-61
2022/10/24 06:48:34;;;;;;;9.90;1.90;;;14.70;99.90;;;;;;5061207;28;20682;-61
2022/10/24 06:51:00;;;;;;;8.52;1.70;;;14.60;99.90;;;;;;5080397;28;20329;-61
2022/10/24 06:53:25;;;;;;;5.57;1.65;;;14.60;99.90;;;;;;5060942;28;20040;-61
2022/10/24 06:55:51;;;;;;;6.45;1.50;;;14.60;99.90;;;;;;5080051;28;20036;-62
2022/10/24 06:58:16;;;;;;;4.28;1.33;;;14.60;99.90;;;;;;5058388;28;20032;-61
2022/10/24 07:00:42;;;;;;;8.07;1.65;;;14.80;99.90;;;;;;5073815;28;20423;-61
2022/10/24 07:03:13;;;;;;;3.95;1.20;;;14.80;99.90;;;;;;5057218;28;20399;-61
2022/10/24 07:05:39;;;;;;;10.40;1.60;;;14.90;99.90;;;;;;5077461;28;20407;-61
2022/10/24 07:08:05;;;;;;;7.05;1.45;;;14.90;99.90;;;;;;5081047;28;20036;-61
2022/10/24 07:10:30;;;;;;;5.70;1.33;;;14.90;99.90;;;;;;5080291;28;20484;-61
2022/10/24 07:12:56;;;;;;;17.48;8.68;;;15.00;99.90;;;;;;5079998;28;20482;-61
2022/10/24 07:15:21;;;;;;;7.75;1.60;;;15.10;99.90;;;;;;5078255;28;20127;-61
2022/10/24 07:17:47;;;;;;;6.30;1.77;;;15.10;99.90;;;;;;5079877;28;20044;-61
2022/10/24 07:20:13;;;;;;;7.32;1.50;;;15.20;99.90;;;;;;5075803;28;20368;-61
2022/10/24 07:22:39;;;;;;;5.93;1.42;;;15.20;99.90;;;;;;5075274;28;20433;-61
2022/10/24 07:25:06;;;;;;;6.47;1.45;;;15.20;99.90;;;;;;5078613;28;20128;-62
2022/10/24 07:27:33;;;;;;;6.45;1.35;;;15.30;99.90;;;;;;5081199;28;20418;-62
2022/10/24 07:29:59;;;;;;;8.20;1.30;;;15.30;99.90;;;;;;5077539;28;20055;-61
2022/10/24 07:32:24;;;;;;;5.88;1.40;;;15.30;99.90;;;;;;5080136;28;20020;-61
2022/10/24 07:34:50;;;;;;;6.72;1.75;;;15.30;99.90;;;;;;5054763;28;20036;-60
2022/10/24 07:37:17;;;;;;;8.13;1.70;;;15.30;99.90;;;;;;5077206;28;20032;-61
2022/10/24 07:39:45;;;;;;;5.68;1.58;;;15.30;99.90;;;;;;5080001;28;20043;-62
2022/10/24 07:42:12;;;;;;;7.65;1.35;;;15.40;99.90;;;;;;5079740;28;20086;-61
2022/10/24 07:44:37;;;;;;;7.40;1.70;;;15.40;99.90;;;;;;5077203;28;20768;-60
2022/10/24 07:47:05;;;;;;;9.57;2.17;;;15.50;99.90;;;;;;5077191;28;20039;-60
2022/10/24 07:49:34;;;;;;;8.60;1.92;;;15.60;99.90;;;;;;5077054;28;20089;-62
2022/10/24 07:52:00;;;;;;;9.18;1.73;;;15.70;99.90;;;;;;5078612;28;20123;-61
2022/10/24 07:54:27;;;;;;;6.68;1.58;;;15.70;99.90;;;;;;5062071;28;20195;-61
2022/10/24 07:56:53;;;;;;;9.52;1.73;;;15.70;99.90;;;;;;5078136;28;20051;-60
2022/10/24 07:59:18;;;;;;;7.70;1.60;;;15.80;99.90;;;;;;5078087;28;20084;-60
2022/10/24 08:01:44;;;;;;;8.88;1.55;;;15.80;99.90;;;;;;5060735;28;20371;-61
2022/10/24 08:04:10;;;;;;;6.93;1.77;;;15.80;99.90;;;;;;5076980;28;21694;-61
2022/10/24 08:06:35;;;;;;;7.03;1.58;;;15.90;99.90;;;;;;5078071;28;20609;-61
2022/10/24 08:09:02;;;;;;;12.65;1.70;;;15.90;99.90;;;;;;5080013;28;20043;-61
2022/10/24 08:11:28;;;;;;;9.77;1.70;;;15.90;99.90;;;;;;5076654;28;20044;-60
2022/10/24 08:13:58;;;;;;;8.05;1.60;;;15.90;99.90;;;;;;5077856;28;20109;-62
2022/10/24 08:16:25;;;;;;;6.90;1.60;;;16.00;99.90;;;;;;5066113;28;20510;-62
2022/10/24 08:18:52;;;;;;;10.77;1.90;;;16.00;99.90;;;;;;5076775;28;20576;-61
2022/10/24 08:21:20;;;;;;;6.57;1.63;;;16.10;99.90;;;;;;5077237;28;20484;-61
2022/10/24 08:23:47;;;;;;;7.63;1.90;;;16.00;99.90;;;;;;5082734;28;20036;-61
2022/10/24 08:26:16;;;;;;;5.72;1.30;;;16.00;99.90;;;;;;5082247;28;20172;-61
2022/10/24 08:28:43;;;;;;;7.50;1.50;;;16.10;99.90;;;;;;5082924;28;20036;-61
2022/10/24 08:31:12;;;;;;;8.02;1.52;;;16.10;99.90;;;;;;5082057;28;20123;-60
2022/10/24 08:33:38;;;;;;;8.25;1.67;;;16.10;99.90;;;;;;5084932;28;20036;-60
2022/10/24 08:36:27;;;;;;;9.23;2.00;;;16.20;99.90;;;;;;5081483;28;20042;-61
2022/10/24 08:38:53;;;;;;;8.55;1.75;;;16.30;99.90;;;;;;5082087;28;20745;-60
2022/10/24 08:41:32;;;;;;;11.10;2.05;;;16.30;99.90;;;;;;5079114;28;20058;-61
2022/10/24 08:44:01;;;;;;;7.82;1.52;;;16.30;99.90;;;;;;5079310;28;20380;-61
2022/10/24 08:46:37;;;;;;;8.55;1.95;;;16.30;99.90;;;;;;5083463;28;20802;-61
2022/10/24 08:49:42;;;;;;;10.90;1.90;;;16.30;99.90;;;;;;5082693;28;20036;-61
2022/10/24 08:52:19;;;;;;;5.72;1.55;;;16.40;99.90;;;;;;5078868;28;20128;-60
2022/10/24 08:54:45;;;;;;;7.38;1.80;;;16.40;99.90;;;;;;5083267;28;20656;-60
2022/10/24 08:57:21;;;;;;;10.07;1.70;;;16.40;99.90;;;;;;5083631;28;20386;-60
2022/10/24 08:59:47;;;;;;;10.90;1.63;;;16.40;99.90;;;;;;5082903;28;20336;-61
2022/10/24 09:02:24;;;;;;;9.75;2.25;;;16.50;99.90;;;;;;5081887;28;20039;-61
2022/10/24 09:05:12;;;;;;;7.00;1.88;;;16.60;99.90;;;;;;5074984;28;20120;-61
2022/10/24 09:07:39;;;;;;;9.88;1.77;;;16.60;99.90;;;;;;5082474;28;20046;-62
2022/10/24 09:10:17;;;;;;;11.40;2.15;;;16.70;99.90;;;;;;5062312;28;20139;-61
2022/10/24 09:12:43;;;;;;;10.38;1.85;;;16.70;99.90;;;;;;5082732;28;20036;-61
2022/10/24 09:15:23;;;;;;;9.80;1.50;;;16.70;99.90;;;;;;5079645;28;20040;-60
2022/10/24 09:17:49;;;;;;;10.38;1.95;;;16.70;99.90;;;;;;5076369;28;20032;-61
2022/10/24 09:20:27;;;;;;;9.02;2.10;;;16.70;99.90;;;;;;5081577;28;20036;-61
2022/10/24 09:22:56;;;;;;;8.20;1.70;;;16.70;99.90;;;;;;5080393;28;20434;-60
2022/10/24 09:25:29;;;;;;;11.05;1.83;;;16.70;99.90;;;;;;5081890;28;20036;-61
2022/10/24 09:27:56;;;;;;;13.30;2.45;;;16.70;99.90;;;;;;5081255;28;20436;-61
2022/10/24 09:30:25;;;;;;;10.52;1.77;;;16.80;99.90;;;;;;5063068;28;20055;-61
2022/10/24 09:32:53;;;;;;;7.97;1.60;;;16.90;99.90;;;;;;5082794;28;20054;-61
2022/10/24 09:35:21;;;;;;;11.52;2.10;;;16.90;99.90;;;;;;5059004;28;20032;-61
2022/10/24 09:38:17;;;;;;;10.48;1.80;;;17.00;99.90;;;;;;5080602;28;20164;-61
2022/10/24 09:40:49;;;;;;;10.65;2.30;;;17.00;99.90;;;;;;5077048;28;20056;-61
2022/10/24 09:43:17;;;;;;;9.90;1.48;;;17.00;99.90;;;;;;5077041;28;20183;-60
2022/10/24 09:45:49;;;;;;;8.55;1.77;;;17.10;99.90;;;;;;5075779;28;20044;-61
2022/10/24 09:48:21;;;;;;;10.88;1.63;;;17.20;99.90;;;;;;5072987;28;20047;-62
2022/10/24 09:50:50;;;;;;;14.30;2.00;;;17.20;99.90;;;;;;5077167;28;20729;-62
2022/10/24 09:53:58;;;;;;;11.27;1.75;;;17.20;99.90;;;;;;5070579;28;20055;-61
2022/10/24 09:56:38;;;;;;;11.15;2.15;;;17.20;99.90;;;;;;5079583;28;20054;-61
2022/10/24 09:59:25;;;;;;;15.93;2.33;;;17.20;99.90;;;;;;5076289;28;20455;-61
2022/10/24 10:01:50;;;;;;;10.77;1.85;;;17.30;99.90;;;;;;5076833;28;20364;-61
2022/10/24 10:04:18;;;;;;;16.77;2.42;;;17.20;99.90;;;;;;5075588;28;20044;-60
2022/10/24 10:06:48;;;;;;;13.40;2.47;;;17.20;99.90;;;;;;5080367;28;20105;-62
2022/10/24 10:09:24;;;;;;;11.60;1.90;;;17.30;99.90;;;;;;5076740;28;20470;-61
2022/10/24 10:11:55;;;;;;;8.48;2.13;;;17.30;99.90;;;;;;5080297;28;20457;-61
2022/10/24 10:14:24;;;;;;;10.40;1.75;;;17.40;99.90;;;;;;5080370;28;20214;-61
2022/10/24 10:17:05;;;;;;;9.50;2.00;;;17.50;99.90;;;;;;5081022;28;20356;-62
2022/10/24 10:19:35;;;;;;;11.10;2.28;;;17.40;99.90;;;;;;5061909;28;20395;-62
2022/10/24 10:22:04;;;;;;;118.05;23.17;;;17.50;99.90;;;;;;5080368;28;20168;-59
2022/10/24 10:24:40;;;;;;;15.23;1.90;;;17.50;99.90;;;;;;5077851;28;20036;-61
2022/10/24 10:27:34;;;;;;;9.80;2.10;;;17.40;99.90;;;;;;5076876;28;20383;-60
2022/10/24 10:30:15;;;;;;;11.65;2.10;;;17.60;99.90;;;;;;5075865;28;20503;-61
2022/10/24 10:32:52;;;;;;;12.02;2.22;;;17.70;99.90;;;;;;5080212;28;20028;-61
2022/10/24 10:35:26;;;;;;;10.35;2.42;;;17.70;99.90;;;;;;5075993;28;20028;-60
2022/10/24 10:38:35;;;;;;;9.15;1.83;;;17.70;99.90;;;;;;5079265;28;20135;-61
2022/10/24 10:41:26;;;;;;;13.68;2.22;;;17.90;99.90;;;;;;5039792;28;20024;-61
2022/10/24 10:44:14;;;;;;;8.48;1.80;;;17.90;99.90;;;;;;5077977;28;20039;-61
2022/10/24 10:47:12;;;;;;;11.25;1.98;;;18.00;99.90;;;;;;5078093;28;20051;-61
2022/10/24 10:49:40;;;;;;;7.00;1.75;;;17.90;99.90;;;;;;5077516;28;20537;-61
2022/10/24 10:52:35;;;;;;;9.70;2.17;;;18.00;99.90;;;;;;5077370;28;20392;-61
2022/10/24 10:55:18;;;;;;;13.02;1.90;;;17.90;99.90;;;;;;5060493;28;20554;-60
2022/10/24 10:58:08;;;;;;;11.15;1.90;;;17.80;99.90;;;;;;5071670;28;20051;-61
2022/10/24 11:00:48;;;;;;;8.70;2.03;;;17.80;99.90;;;;;;5061655;28;20095;-61
2022/10/24 11:03:24;;;;;;;9.55;2.15;;;17.80;99.90;;;;;;5080247;28;20077;-60
2022/10/24 11:06:01;;;;;;;9.98;2.03;;;17.80;99.90;;;;;;5077262;28;20034;-60
2022/10/24 11:08:30;;;;;;;11.63;2.33;;;17.80;99.90;;;;;;5079538;28;20029;-61
2022/10/24 11:11:02;;;;;;;10.48;2.15;;;17.70;99.90;;;;;;5072985;28;20052;-61
2022/10/24 11:13:40;;;;;;;10.70;2.63;;;17.70;99.90;;;;;;5077549;28;20047;-61
2022/10/24 11:16:12;;;;;;;11.75;2.35;;;17.70;99.90;;;;;;5058299;28;20129;-60
2022/10/24 11:18:42;;;;;;;12.13;2.50;;;17.60;99.90;;;;;;5080714;28;20471;-61
2022/10/24 11:21:10;;;;;;;11.05;2.13;;;17.60;99.90;;;;;;5080656;28;20918;-61
2022/10/24 11:23:48;;;;;;;14.13;2.53;;;17.60;99.90;;;;;;5083296;28;20028;-61
2022/10/24 11:26:39;;;;;;;11.40;2.40;;;17.60;99.90;;;;;;5079741;28;20039;-61
2022/10/24 11:29:30;;;;;;;9.35;1.90;;;17.50;99.90;;;;;;5061947;28;20044;-61
2022/10/24 11:31:58;;;;;;;13.65;2.25;;;17.50;99.90;;;;;;5082825;28;20211;-61
2022/10/24 11:34:32;;;;;;;11.40;2.05;;;17.50;99.90;;;;;;5081131;28;20063;-61
2022/10/24 11:37:06;;;;;;;8.85;1.60;;;17.50;99.90;;;;;;5074960;28;20036;-60
2022/10/24 11:39:56;;;;;;;12.15;2.17;;;17.50;99.90;;;;;;5068661;28;20531;-60
2022/10/24 11:42:52;;;;;;;12.10;2.17;;;17.50;99.90;;;;;;5056815;28;20121;-60
2022/10/24 11:45:20;;;;;;;15.55;2.45;;;17.50;99.90;;;;;;5051512;28;20081;-62
2022/10/24 11:48:01;;;;;;;11.85;2.45;;;17.40;99.90;;;;;;5051096;28;20167;-61
2022/10/24 11:50:33;;;;;;;10.38;2.53;;;17.40;99.90;;;;;;5076178;28;20087;-62
2022/10/24 11:53:21;;;;;;;11.93;1.73;;;17.40;99.90;;;;;;5080746;28;20106;-61
2022/10/24 11:55:54;;;;;;;14.65;2.30;;;17.40;99.90;;;;;;5080144;28;20055;-62
2022/10/24 11:58:22;;;;;;;14.37;2.10;;;17.40;99.90;;;;;;5078635;28;20036;-61
2022/10/24 12:00:59;;;;;;;10.15;2.15;;;17.40;99.90;;;;;;5074763;28;20286;-60
2022/10/24 12:03:52;;;;;;;10.27;2.03;;;17.50;99.90;;;;;;5075043;28;20040;-60
2022/10/24 12:06:41;;;;;;;13.82;2.55;;;17.50;99.90;;;;;;5072682;28;20479;-60
2022/10/24 12:09:30;;;;;;;12.65;2.05;;;17.40;99.90;;;;;;5076589;28;20036;-60
2022/10/24 12:12:29;;;;;;;9.95;1.92;;;17.40;99.90;;;;;;5079917;28;20395;-61
2022/10/24 12:15:16;;;;;;;13.15;2.72;;;17.40;99.90;;;;;;5035457;28;20088;-61
2022/10/24 12:18:10;;;;;;;13.63;2.33;;;17.40;99.90;;;;;;5077689;28;20040;-60
2022/10/24 12:20:38;;;;;;;10.82;2.63;;;17.40;99.90;;;;;;5073129;28;20040;-60
2022/10/24 12:23:04;;;;;;;11.38;2.22;;;17.40;99.90;;;;;;5079256;28;20480;-61
2022/10/24 12:25:36;;;;;;;11.93;2.50;;;17.40;99.90;;;;;;5079631;28;20424;-59
2022/10/24 12:28:16;;;;;;;11.88;2.42;;;17.40;99.90;;;;;;5078219;28;20036;-61
2022/10/24 12:31:02;;;;;;;9.48;2.00;;;17.50;99.90;;;;;;5077087;28;20040;-61
2022/10/24 12:33:28;;;;;;;11.27;2.42;;;17.60;99.90;;;;;;5078964;28;20131;-61
2022/10/24 12:35:56;;;;;;;11.15;2.20;;;17.70;99.90;;;;;;5078885;28;20123;-61
2022/10/24 12:38:27;;;;;;;11.77;2.40;;;17.60;99.90;;;;;;5078692;28;20117;-61
2022/10/24 12:40:57;;;;;;;10.60;1.85;;;17.70;99.90;;;;;;5075968;28;20495;-61
2022/10/24 12:43:34;;;;;;;10.20;2.28;;;17.70;99.90;;;;;;5053065;28;20040;-61
2022/10/24 12:46:22;;;;;;;10.65;1.80;;;17.70;99.90;;;;;;5075853;28;20037;-61
2022/10/24 12:49:16;;;;;;;12.85;2.05;;;17.70;99.90;;;;;;5054895;28;20036;-62
2022/10/24 12:51:42;;;;;;;10.52;2.22;;;17.80;99.90;;;;;;5077409;28;20398;-62
2022/10/24 12:54:10;;;;;;;10.82;2.50;;;17.80;99.90;;;;;;5078224;28;20097;-60
2022/10/24 12:56:57;;;;;;;12.50;2.03;;;17.80;99.90;;;;;;5078417;28;20075;-60
2022/10/24 12:59:33;;;;;;;6.90;1.80;;;17.80;99.90;;;;;;5074750;28;20046;-60